Details From EDDS - Stuttgart
To ENBR - Bergen Lufthavn Flesland
Flight Number -
Tags Generated
Created
Modified
Stats Distance 711 nm / 1,317 km
Max Altitude 0 ft / 0 m
Waypoints 4
Social Downloads 1
Likes 0
Share VATSIM

Download

Looking for another format? Having issues loading an existing format? Contact us
Advertisement - Login to hide

Notes

Generated

Route

EDDS AHL R2222 ENBR

ID Type Via Altitude Latitude Longitude Leg Dist Tot Dist Heading (true) Name
O EDDS APT - 0 ft / 0 m 48.68573˚ 9.20013˚ - 0 nm - -
AHL NDB - 0 ft / 0 m 52.88805˚ 8.12250˚ 255 nm 255 nm 351° / 350° AHLHORN NDB
R2222 FIX - 0 ft / 0 m 60.30423˚ 5.21449˚ 455 nm 711 nm 349° / 347° -
O ENBR APT - 0 ft / 0 m 60.30662˚ 5.21370˚ 0 nm 711 nm 351° / 351° -

Altitude Profile

Advertisement - Login to hide

Weather


0- 5 10 15 20 25 30 35+ Temperature / ° C

Clouds and Precipitation
Forecast for 2017-12-16 18:00 UTC. Updated 9 minutes ago

Ground ~20,000 ft ~40,000 ft Winds

EDDS

Details ICAO EDDS (STR)
Name Stuttgart
Region Germany - Civil
Timezone Europe/Berlin (UTC+1.0)
Stats Elevation 1,273 ft / 388 m (AMSL)
Location 48.689876° 9.221962°
Runways 1
Magnetic Variation 2.524° E

METAR

EDDS 161520Z 27010KT 9999 -SHSNRA SCT018TCU BKN040 02/00 Q1013 TEMPO 3000 SHSNRA

Decode

TAF

TAF TAF EDDS 161100Z 1612/1712 30007KT 9000 SCT020 BKN030 PROB40 TEMPO 1612/1708 1500 SHSN BKN005 BKN012TCU

Decode

Departure Runways

ID Width Length Bearing (true) Bearing (mag) Surface Threshold Offset Overrun Length
07 148 ft / 45 m 10,950 ft / 3,337 m 73.96° 71.44° Concrete 981 ft / 299 m 157 ft / 48 m
25 148 ft / 45 m 10,950 ft / 3,337 m 253.99° 251.47° Concrete 0 ft / 0 m 157 ft / 48 m

ENBR

Details ICAO ENBR (BGO)
Name Bergen Lufthavn Flesland
Region Norway
Timezone Europe/Oslo (UTC+1.0)
Stats Elevation 165 ft / 50 m (AMSL)
Location 60.293388° 5.218140°
Runways 1
Magnetic Variation 0.842° E

METAR

ENBR 161450Z 01006KT 9999 FEW015CB M03/M06 Q1008 NOSIG RMK WIND 1200FT 01008KT

Decode

TAF

TAF ENBR 161100Z 1612/1712 01007KT 9999 FEW015 SCT050 TEMPO 1612/1618 FEW015CB BECMG 1706/1708 14010KT PROB30 TEMPO 1708/1712 2000 SHSN VV010

Decode

Destination Runways

ID Width Length Bearing (true) Bearing (mag) Surface Threshold Offset Overrun Length
17 148 ft / 45 m 9,793 ft / 2,985 m 170.56° 169.72° Asphalt 886 ft / 270 m 0 ft / 0 m
35 148 ft / 45 m 9,793 ft / 2,985 m 350.57° 349.73° Asphalt 886 ft / 270 m 0 ft / 0 m

Approach Navaids

Runway Type Ident Frequency Range Bearing (true) Bearing (mag) Slope Elevation
17 Localiser BR 109.90 MHz 18 nm / 33 km 170.56° 169.72° - 165 ft / 50 m (AMSL)
17 Glidescope BR 109.90 MHz 10 nm / 19 km 170.56° 169.72° 3.10° 165 ft / 50 m (AMSL)
35 Localiser BG 110.50 MHz 18 nm / 33 km 350.55° 349.70° - 165 ft / 50 m (AMSL)
35 Glidescope BG 110.50 MHz 10 nm / 19 km 350.56° 349.72° 3.00° 165 ft / 50 m (AMSL)

Popular Alternatives